aviador You're here:

LYTV Decoded Metar

TIVAT in SERBIA
Report Time2018-04-27 02:30:00
UTC Time2018-04-27 03:02:34
Flight Rules vfr VFR
WindVRB at 02 kt
Visibility9999 m
Phenomena:N/A
Clouds:N/A
Expected CloudBase > 400 ft AGL from Temp-Dew spread
CeilingNone
Temp11°C (ISA -4)
Dew Point10°C (94% RH)
AAT10.3°C
QNH1012 hPa
Density Alt-259 ft
Elevation16 ft
Report Wrong Elevation
Raw Report
LYTV 270230Z VRB02KT CAVOK 11/10 Q1012=

Extra information for LYTV:More info

Metar Taf Metar & Taf Last 4 Metars F.Rules Stats Wind Profile Meteogram Temp Stats Airport Information Weather charts Add Link Nearby VenuesMetar ALERT Operation Metar Decoded Social comments